createdAt,value
2022-11-10T00:02:07.665Z,48.42
2022-11-10T00:07:10.172Z,48.13
2022-11-10T00:12:12.775Z,48.38
2022-11-10T00:17:15.301Z,48.53
2022-11-10T00:22:17.757Z,43.83
2022-11-10T00:27:20.289Z,42.63
2022-11-10T00:38:00.396Z,49.75
2022-11-10T00:43:02.708Z,43.33
2022-11-10T00:48:05.397Z,44.30
2022-11-10T00:53:07.809Z,42.80
2022-11-10T00:58:10.193Z,43.70
2022-11-10T01:03:18.883Z,43.80
2022-11-10T01:08:21.194Z,43.92
2022-11-10T01:13:23.692Z,44.67
2022-11-10T01:18:26.055Z,50.85
2022-11-10T01:23:28.250Z,48.20
2022-11-10T01:28:31.331Z,49.00
2022-11-10T01:33:34.274Z,55.05
2022-11-10T01:38:39.668Z,48.47
2022-11-10T01:43:42.262Z,47.80
2022-11-10T01:48:47.240Z,51.90
2022-11-10T01:54:00.233Z,55.42
2022-11-10T01:59:08.456Z,47.15
2022-11-10T02:04:15.383Z,61.70
2022-11-10T02:09:18.458Z,57.65
2022-11-10T02:14:20.762Z,49.78
2022-11-10T02:19:25.417Z,48.22
2022-11-10T02:24:27.755Z,47.65
2022-11-10T02:29:29.960Z,48.65
2022-11-10T02:34:32.217Z,51.60
2022-11-10T02:39:34.437Z,45.13
2022-11-10T02:44:38.691Z,53.38
2022-11-10T02:49:41.209Z,44.78
2022-11-10T02:54:43.384Z,47.35
2022-11-10T02:59:45.572Z,55.72
2022-11-10T03:04:47.774Z,48.08
2022-11-10T03:09:50.037Z,46.83
2022-11-10T03:14:52.188Z,52.78
2022-11-10T03:19:54.369Z,47.70
2022-11-10T03:24:56.552Z,43.75
2022-11-10T03:29:58.770Z,55.08
2022-11-10T03:35:00.965Z,49.47
2022-11-10T03:40:03.923Z,59.08
2022-11-10T03:45:06.719Z,57.47
2022-11-10T03:50:09.316Z,54.55
2022-11-10T03:55:14.202Z,57.85
2022-11-10T04:00:16.877Z,58.17
2022-11-10T04:05:38.134Z,66.85
2022-11-10T04:10:40.422Z,61.22
2022-11-10T04:21:58.276Z,61.28
2022-11-10T04:27:00.442Z,53.22
2022-11-10T04:32:02.622Z,53.67
2022-11-10T04:37:05.511Z,57.25
2022-11-10T04:42:07.826Z,55.70
2022-11-10T04:47:11.980Z,51.72
2022-11-10T04:52:14.419Z,50.13
2022-11-10T04:57:16.581Z,46.92
2022-11-10T05:02:18.757Z,48.42
2022-11-10T05:07:20.930Z,48.40
2022-11-10T05:12:23.110Z,55.88
2022-11-10T05:17:25.477Z,49.97
2022-11-10T05:22:27.798Z,51.88
2022-11-10T05:27:30.397Z,59.80
2022-11-10T05:32:33.474Z,54.00
2022-11-10T05:37:40.177Z,55.42
2022-11-10T05:42:53.226Z,55.75
2022-11-10T05:47:56.476Z,53.63
2022-11-10T05:52:58.669Z,65.28
2022-11-10T05:58:00.856Z,59.92
2022-11-10T06:03:21.604Z,60.58
2022-11-10T06:08:24.207Z,55.15
2022-11-10T06:13:26.469Z,71.53
2022-11-10T06:18:28.643Z,58.53
2022-11-10T06:23:30.905Z,59.22
2022-11-10T06:28:33.083Z,63.95
2022-11-10T06:33:35.306Z,63.47
2022-11-10T06:38:37.451Z,63.67
2022-11-10T06:43:39.853Z,65.80
2022-11-10T06:48:42.030Z,71.57
2022-11-10T06:53:44.292Z,69.93
2022-11-10T06:58:46.477Z,72.78
2022-11-10T07:04:13.498Z,81.38
2022-11-10T07:09:10.870Z,78.32
2022-11-10T07:14:13.048Z,71.80
2022-11-10T07:19:15.217Z,59.53
2022-11-10T07:24:17.406Z,65.45
2022-11-10T07:29:19.690Z,65.63
2022-11-10T07:34:21.900Z,76.65
2022-11-10T07:39:24.060Z,74.35
2022-11-10T07:44:28.093Z,70.43
2022-11-10T07:49:30.308Z,69.07
2022-11-10T07:54:32.491Z,63.00
2022-11-10T07:59:34.652Z,76.28
2022-11-10T08:04:36.814Z,86.60
2022-11-10T08:09:38.966Z,62.25
2022-11-10T08:14:41.159Z,61.75
2022-11-10T08:19:43.356Z,60.80
2022-11-10T08:24:45.744Z,60.17
2022-11-10T08:29:47.917Z,60.65
2022-11-10T08:34:50.088Z,56.95
2022-11-10T08:39:52.284Z,60.47
2022-11-10T08:44:54.443Z,61.80
2022-11-10T08:49:56.639Z,60.80
2022-11-10T08:54:58.886Z,70.18
2022-11-10T09:00:01.077Z,77.65
2022-11-10T09:05:03.431Z,68.28
2022-11-10T09:10:08.064Z,58.55
2022-11-10T09:15:11.465Z,66.18
2022-11-10T09:20:13.695Z,58.75
2022-11-10T09:25:16.005Z,60.03
2022-11-10T09:30:18.872Z,50.55
2022-11-10T09:35:21.469Z,42.05
2022-11-10T09:40:51.251Z,42.45
2022-11-10T09:45:55.896Z,43.45
2022-11-10T09:51:03.310Z,45.10
2022-11-10T09:56:07.275Z,47.75
2022-11-10T10:01:15.263Z,38.85
2022-11-10T10:06:17.674Z,43.42
2022-11-10T10:23:30.483Z,35.63
2022-11-10T10:28:46.451Z,36.25
2022-11-10T10:33:49.723Z,33.15
2022-11-10T10:39:01.370Z,42.28
2022-11-10T10:44:12.635Z,34.70
2022-11-10T10:49:31.458Z,37.45
2022-11-10T10:54:36.479Z,33.80
2022-11-10T10:59:38.683Z,31.02
2022-11-10T11:04:40.883Z,35.25
2022-11-10T11:09:44.689Z,30.92
2022-11-10T11:14:46.975Z,26.90
2022-11-10T11:19:59.417Z,28.95
2022-11-10T11:25:09.635Z,29.02
2022-11-10T11:30:17.820Z,27.45
2022-11-10T11:35:44.812Z,26.55
2022-11-10T11:41:05.445Z,24.75
2022-11-10T11:46:22.235Z,24.80
2022-11-10T11:51:48.898Z,21.92
2022-11-10T11:56:52.203Z,24.88
2022-11-10T12:02:02.384Z,22.05
2022-11-10T12:07:28.761Z,22.25
2022-11-10T12:12:46.585Z,19.27
2022-11-10T12:18:17.998Z,15.85
2022-11-10T12:23:29.053Z,23.63
2022-11-10T12:28:40.246Z,16.15
2022-11-10T12:33:47.961Z,19.67
2022-11-10T12:39:19.305Z,15.98
2022-11-10T12:44:37.465Z,16.67
2022-11-10T12:50:01.368Z,22.33
2022-11-10T12:55:04.600Z,23.88
2022-11-10T13:00:27.766Z,18.10
2022-11-10T13:05:42.424Z,20.80
2022-11-10T13:11:01.722Z,18.65
2022-11-10T13:16:04.047Z,21.70
2022-11-10T13:21:06.325Z,17.52
2022-11-10T13:26:32.949Z,22.05
2022-11-10T13:31:40.627Z,21.33
2022-11-10T13:36:45.422Z,19.02
2022-11-10T13:41:57.503Z,22.17
2022-11-10T13:47:08.627Z,15.00
2022-11-10T13:52:20.768Z,20.80
2022-11-10T13:57:37.850Z,28.35
2022-11-10T14:02:47.623Z,19.13
2022-11-10T14:07:50.586Z,26.13
2022-11-10T14:12:58.679Z,22.63
2022-11-10T14:18:01.284Z,21.98
2022-11-10T14:23:06.151Z,20.92
2022-11-10T14:28:27.461Z,30.23
2022-11-10T14:33:29.777Z,18.50
2022-11-10T14:38:36.190Z,12.95
2022-11-10T14:43:39.685Z,16.55
2022-11-10T14:48:42.081Z,16.08
2022-11-10T14:53:53.432Z,14.18
2022-11-10T14:58:59.515Z,21.25
2022-11-10T15:04:04.416Z,15.52
2022-11-10T15:09:22.572Z,22.15
2022-11-10T15:14:40.975Z,23.40
2022-11-10T15:19:45.888Z,25.42
2022-11-10T15:24:50.691Z,22.65
2022-11-10T15:29:54.663Z,26.00
2022-11-10T15:35:09.879Z,26.75
2022-11-10T15:40:33.702Z,26.65
2022-11-10T15:45:36.459Z,24.00
2022-11-10T15:50:38.920Z,27.63
2022-11-10T15:55:42.603Z,29.25
2022-11-10T16:00:44.996Z,30.23
2022-11-10T16:05:48.958Z,33.42
2022-11-10T16:10:54.626Z,29.98
2022-11-10T16:15:58.143Z,29.80
2022-11-10T16:21:00.381Z,27.10
2022-11-10T16:26:05.397Z,29.23
2022-11-10T16:31:11.787Z,32.22
2022-11-10T16:36:16.905Z,33.42
2022-11-10T16:41:19.277Z,36.70
2022-11-10T16:46:28.788Z,30.13
2022-11-10T16:51:51.208Z,31.73
2022-11-10T16:56:53.424Z,34.97
2022-11-10T17:01:55.812Z,34.97
2022-11-10T17:06:58.081Z,34.05
2022-11-10T17:12:00.297Z,31.10
2022-11-10T17:17:03.136Z,35.35
2022-11-10T17:22:05.628Z,40.30
2022-11-10T17:27:09.007Z,37.63
2022-11-10T17:32:11.185Z,41.38
2022-11-10T17:37:14.454Z,36.00
2022-11-10T17:42:16.787Z,44.47
2022-11-10T17:47:19.276Z,35.83
2022-11-10T17:52:21.833Z,36.00
2022-11-10T17:57:24.033Z,35.45
2022-11-10T18:02:26.243Z,42.28
2022-11-10T18:07:38.606Z,41.53
2022-11-10T18:12:41.663Z,58.75
2022-11-10T18:17:44.345Z,55.38
2022-11-10T18:22:46.557Z,57.22
2022-11-10T18:27:49.093Z,57.55
2022-11-10T18:32:51.326Z,61.47
2022-11-10T18:37:53.564Z,66.93
2022-11-10T18:43:05.969Z,68.88
2022-11-10T18:48:09.600Z,70.72
2022-11-10T18:53:12.232Z,73.35
2022-11-10T18:58:14.408Z,75.75
2022-11-10T19:03:16.711Z,72.55
2022-11-10T19:08:18.993Z,69.57
2022-11-10T19:13:22.167Z,70.60
2022-11-10T19:18:24.597Z,68.35
2022-11-10T19:23:27.049Z,62.72
2022-11-10T19:28:30.183Z,62.40
2022-11-10T19:33:33.898Z,59.70
2022-11-10T19:38:37.011Z,62.90
2022-11-10T19:43:42.475Z,67.18
2022-11-10T19:48:48.774Z,72.72
2022-11-10T19:53:58.258Z,63.95
2022-11-10T19:59:00.629Z,69.68
2022-11-10T20:04:03.489Z,71.10
2022-11-10T20:09:05.801Z,74.82
2022-11-10T20:14:08.207Z,72.45
2022-11-10T20:19:10.395Z,69.05
2022-11-10T20:24:13.243Z,78.65
2022-11-10T20:29:15.742Z,79.80
2022-11-10T20:34:18.089Z,73.80
2022-11-10T20:39:20.282Z,63.17
2022-11-10T20:44:22.532Z,68.97
2022-11-10T20:49:24.968Z,87.68
2022-11-10T20:54:27.827Z,70.80
2022-11-10T20:59:30.207Z,74.25
2022-11-10T21:04:32.412Z,66.20
2022-11-10T21:09:34.636Z,69.60
2022-11-10T21:14:36.903Z,76.65
2022-11-10T21:19:39.289Z,81.03
2022-11-10T21:24:41.502Z,74.97
2022-11-10T21:29:43.748Z,79.00
2022-11-10T21:34:47.618Z,77.20
2022-11-10T21:39:50.401Z,69.43
2022-11-10T21:44:52.599Z,77.20
2022-11-10T21:49:54.812Z,69.05
2022-11-10T21:54:57.133Z,76.60
2022-11-10T21:59:59.482Z,77.03
2022-11-10T22:05:01.665Z,74.18
2022-11-10T22:10:22.657Z,73.70
2022-11-10T22:15:43.473Z,72.55
2022-11-10T22:20:46.027Z,75.60
2022-11-10T22:25:48.168Z,74.30
2022-11-10T22:30:51.784Z,66.95
2022-11-10T22:35:58.459Z,70.63
2022-11-10T22:41:19.246Z,71.97
2022-11-10T22:46:21.456Z,73.10
2022-11-10T22:51:24.592Z,72.50
2022-11-10T22:56:27.356Z,71.57
2022-11-10T23:01:30.311Z,55.53
2022-11-10T23:06:33.342Z,54.67
2022-11-10T23:11:35.868Z,52.75
2022-11-10T23:16:38.074Z,56.08
2022-11-10T23:21:40.348Z,54.55
2022-11-10T23:26:42.570Z,58.28
2022-11-10T23:31:44.889Z,52.08
2022-11-10T23:36:47.239Z,56.42
2022-11-10T23:41:49.444Z,51.65
2022-11-10T23:46:51.633Z,59.97
2022-11-10T23:51:53.946Z,53.30
2022-11-10T23:56:56.412Z,57.58
